Time;durP1;ratioP1;P1;durP2;ratioP2;P2;SDS_P1;SDS_P2;PMS_P1;PMS_P2;Temp;Humidity;BMP_temperature;BMP_pressure;BME280_temperature;BME280_humidity;BME280_pressure;Samples;Min_cycle;Max_cycle;Signal;HPM_P1;HPM_P2
2022/09/29 00:01:29;;;;;;;53.15;24.85;;;;;;;6.87;96.26;99714.97;5081657;28;20020;-70
2022/09/29 00:03:55;;;;;;;50.88;26.40;;;;;;;6.66;96.55;99721.59;5073363;28;20048;-70
2022/09/29 00:06:21;;;;;;;56.58;27.77;;;;;;;6.60;97.45;99732.16;5080330;28;20027;-70
2022/09/29 00:08:46;;;;;;;58.63;28.42;;;;;;;6.30;98.48;99726.28;5089854;28;20046;-71
2022/09/29 00:11:15;;;;;;;63.00;29.08;;;;;;;6.49;99.01;99730.59;5074491;28;20016;-70
2022/09/29 00:13:41;;;;;;;62.72;29.50;;;;;;;6.42;100.00;99718.78;5079729;28;20020;-70
2022/09/29 00:16:07;;;;;;;43.63;26.05;;;;;;;6.60;98.67;99727.63;5072397;28;20073;-70
2022/09/29 00:18:33;;;;;;;64.55;29.63;;;;;;;6.63;97.82;99719.22;5088419;28;20031;-70
2022/09/29 00:21:04;;;;;;;38.45;21.75;;;;;;;6.70;97.00;99722.94;5083563;28;20086;-70
2022/09/29 00:23:31;;;;;;;49.22;25.13;;;;;;;6.52;98.22;99724.91;5084490;28;20042;-70
2022/09/29 00:26:13;;;;;;;45.70;23.63;;;;;;;6.61;96.84;99718.56;5055248;28;20111;-70
2022/09/29 00:28:44;;;;;;;51.72;27.63;;;;;;;6.65;96.47;99713.69;5083579;28;20024;-70
2022/09/29 00:31:11;;;;;;;51.95;24.92;;;;;;;6.60;96.03;99722.25;5068577;28;20027;-70
2022/09/29 00:33:37;;;;;;;46.90;24.35;;;;;;;6.59;95.67;99720.56;5055274;28;20028;-70
2022/09/29 00:36:05;;;;;;;38.72;22.80;;;;;;;6.46;96.27;99722.84;5081377;28;20020;-70
2022/09/29 00:38:32;;;;;;;47.42;23.77;;;;;;;6.49;95.79;99725.22;5060961;28;20042;-70
2022/09/29 00:40:57;;;;;;;49.38;22.13;;;;;;;6.40;95.98;99727.03;5072935;28;20032;-70
2022/09/29 00:43:45;;;;;;;48.38;24.20;;;;;;;6.47;95.62;99716.47;5077323;28;20090;-70
2022/09/29 00:46:13;;;;;;;40.47;21.90;;;;;;;6.47;95.34;99716.47;5062960;28;20060;-70
2022/09/29 00:48:40;;;;;;;42.60;21.33;;;;;;;6.24;95.77;99717.00;5079821;28;20031;-70
2022/09/29 00:51:05;;;;;;;46.13;24.15;;;;;;;6.30;96.26;99720.06;5060894;28;20046;-70
2022/09/29 00:53:32;;;;;;;43.28;24.58;;;;;;;6.35;96.31;99718.59;5080507;28;20027;-68
2022/09/29 00:56:04;;;;;;;49.90;26.42;;;;;;;6.34;97.01;99718.75;5080649;28;20391;-71
2022/09/29 00:58:38;;;;;;;59.03;25.67;;;;;;;6.34;96.91;99724.13;5081920;28;20020;-70
2022/09/29 01:01:05;;;;;;;49.05;24.73;;;;;;;6.03;97.64;99729.13;5066616;28;20042;-70
2022/09/29 01:03:36;;;;;;;54.85;26.42;;;;;;;6.01;98.58;99721.22;5061811;28;20157;-69
2022/09/29 01:06:26;;;;;;;49.08;24.50;;;;;;;6.11;98.68;99726.50;5073580;28;20028;-69
2022/09/29 01:09:01;;;;;;;45.08;23.73;;;;;;;6.11;98.82;99726.50;5066063;28;20025;-71
2022/09/29 01:11:28;;;;;;;48.08;23.85;;;;;;;6.10;99.38;99714.06;5081477;28;20396;-69
2022/09/29 01:13:56;;;;;;;55.25;27.17;;;;;;;6.00;99.62;99719.56;5068868;28;20016;-71
2022/09/29 01:16:21;;;;;;;79.18;31.30;;;;;;;5.88;100.00;99720.78;5063064;28;20020;-71
2022/09/29 01:18:47;;;;;;;59.55;28.50;;;;;;;5.94;100.00;99721.03;5058721;28;20036;-70
2022/09/29 01:21:27;;;;;;;62.97;30.08;;;;;;;6.03;100.00;99721.91;5057061;28;20074;-71
2022/09/29 01:24:17;;;;;;;54.95;24.42;;;;;;;6.13;100.00;99719.97;5070396;28;20118;-71
2022/09/29 01:27:02;;;;;;;40.95;20.35;;;;;;;6.11;99.33;99711.22;5081324;28;20114;-71
2022/09/29 01:29:46;;;;;;;45.80;23.58;;;;;;;6.06;100.00;99718.88;5060148;28;20021;-70
2022/09/29 01:32:26;;;;;;;55.53;25.85;;;;;;;6.11;99.53;99716.59;5088403;28;20029;-70
2022/09/29 01:34:57;;;;;;;53.72;24.98;;;;;;;6.16;99.07;99724.19;5054331;28;20087;-70
2022/09/29 01:37:54;;;;;;;53.38;25.75;;;;;;;6.03;99.41;99713.84;5071608;28;20024;-70
2022/09/29 01:40:33;;;;;;;51.30;23.02;;;;;;;6.18;98.69;99709.56;5073993;28;20126;-70
2022/09/29 01:43:15;;;;;;;38.28;20.42;;;;;;;6.25;97.59;99718.69;5070155;28;20027;-70
2022/09/29 01:45:48;;;;;;;46.95;20.92;;;;;;;6.25;97.36;99718.69;5080074;28;20456;-71
2022/09/29 01:48:24;;;;;;;46.95;22.48;;;;;;;6.16;96.58;99719.66;5054022;28;20029;-70
2022/09/29 01:50:54;;;;;;;37.40;20.33;;;;;;;6.11;96.16;99716.59;5070544;28;20016;-70
2022/09/29 01:53:27;;;;;;;35.13;19.20;;;;;;;6.00;95.92;99714.19;5073820;28;20027;-70
2022/09/29 01:55:58;;;;;;;32.80;17.73;;;;;;;5.90;96.01;99718.75;5071720;28;20024;-69
2022/09/29 01:58:38;;;;;;;38.90;19.95;;;;;;;5.84;96.17;99722.91;5061793;28;20020;-69
2022/09/29 02:01:08;;;;;;;35.80;19.88;;;;;;;5.96;96.16;99718.16;5071524;28;20040;-70
2022/09/29 02:03:42;;;;;;;53.22;23.08;;;;;;;5.90;95.59;99724.13;5073134;28;20037;-69
2022/09/29 02:06:20;;;;;;;41.90;20.27;;;;;;;5.83;95.43;99717.69;5066396;28;20024;-70
2022/09/29 02:08:52;;;;;;;41.58;21.02;;;;;;;5.82;96.04;99732.13;5056030;28;20017;-70
2022/09/29 02:11:18;;;;;;;40.30;20.05;;;;;;;5.71;95.64;99720.63;5079058;28;20039;-70
2022/09/29 02:13:56;;;;;;;32.55;17.95;;;;;;;5.70;96.09;99718.94;5080211;28;20396;-70
2022/09/29 02:16:30;;;;;;;37.38;20.38;;;;;;;5.81;95.81;99720.56;5080935;28;20491;-70
2022/09/29 02:19:05;;;;;;;45.08;20.38;;;;;;;5.87;95.44;99721.78;5054113;28;20031;-70
2022/09/29 02:21:30;;;;;;;43.72;20.88;;;;;;;5.82;95.25;99721.38;5064832;28;20431;-70
2022/09/29 02:23:56;;;;;;;54.70;22.42;;;;;;;5.73;95.82;99729.38;5063666;28;20050;-70
2022/09/29 02:26:26;;;;;;;38.90;20.25;;;;;;;5.70;96.11;99729.69;5094280;22;20036;-75
2022/09/29 02:28:54;;;;;;;35.03;19.15;;;;;;;5.41;98.06;99726.38;5096718;28;20089;-72
2022/09/29 02:31:20;;;;;;;48.10;22.67;;;;;;;5.51;98.71;99729.84;5074226;28;20579;-72
2022/09/29 02:33:45;;;;;;;36.90;20.63;;;;;;;5.60;98.79;99728.06;5085677;28;20103;-75
2022/09/29 02:36:42;;;;;;;54.40;24.25;;;;;;;5.59;98.75;99727.22;5082911;28;20109;-74
2022/09/29 02:39:29;;;;;;;36.67;19.77;;;;;;;5.76;99.03;99735.44;5078615;28;20085;-72
2022/09/29 02:42:02;;;;;;;36.97;20.27;;;;;;;5.69;98.61;99728.00;5072986;28;20024;-73
2022/09/29 02:44:51;;;;;;;35.92;19.17;;;;;;;5.67;99.02;99727.31;5071170;28;20024;-74
2022/09/29 02:47:24;;;;;;;39.47;21.75;;;;;;;5.62;99.39;99721.56;5072279;28;20027;-74
2022/09/29 02:50:06;;;;;;;52.40;24.25;;;;;;;5.68;98.91;99725.47;5085214;28;20084;-72
2022/09/29 02:52:44;;;;;;;36.58;19.55;;;;;;;5.52;98.90;99726.16;5067973;28;20068;-72
2022/09/29 02:55:24;;;;;;;32.28;18.55;;;;;;;5.58;98.51;99725.53;5095334;28;20032;-73
2022/09/29 02:57:52;;;;;;;32.40;18.02;;;;;;;5.53;98.29;99724.31;5099662;28;20027;-72
2022/09/29 03:00:18;;;;;;;35.88;19.65;;;;;;;5.51;98.82;99724.47;5090331;28;20024;-72
2022/09/29 03:02:44;;;;;;;36.03;19.30;;;;;;;5.53;98.81;99733.22;5091148;28;20020;-73
2022/09/29 03:05:13;;;;;;;33.15;17.05;;;;;;;5.55;98.51;99725.88;5089699;28;20035;-73
2022/09/29 03:07:39;;;;;;;41.67;20.67;;;;;;;5.70;98.31;99735.06;5076794;28;20027;-73
2022/09/29 03:10:06;;;;;;;48.80;23.00;;;;;;;5.59;97.76;99729.91;5079534;28;20020;-73
2022/09/29 03:12:33;;;;;;;31.95;17.75;;;;;;;5.64;97.35;99730.31;5095662;28;20027;-73
2022/09/29 03:14:58;;;;;;;44.05;20.02;;;;;;;5.60;97.92;99722.69;5077839;28;20020;-73
2022/09/29 03:17:23;;;;;;;41.88;20.85;;;;;;;5.62;98.06;99724.25;5073188;28;20020;-73
2022/09/29 03:19:49;;;;;;;45.80;19.58;;;;;;;5.69;98.28;99732.53;5090503;28;20020;-73
2022/09/29 03:22:14;;;;;;;34.58;19.05;;;;;;;5.50;97.68;99730.84;5077805;28;20016;-73
2022/09/29 03:24:40;;;;;;;41.75;22.55;;;;;;;5.61;97.86;99730.63;5084879;28;20057;-73
2022/09/29 03:27:08;;;;;;;40.30;19.67;;;;;;;5.64;96.93;99735.66;5081528;28;20119;-73
2022/09/29 03:29:35;;;;;;;36.78;19.63;;;;;;;5.68;96.88;99737.06;5085187;28;20143;-73
2022/09/29 03:32:01;;;;;;;33.95;16.38;;;;;;;5.41;96.59;99734.44;5090626;28;20031;-73
2022/09/29 03:34:26;;;;;;;38.08;21.45;;;;;;;5.38;97.35;99729.38;5078831;28;20551;-73
2022/09/29 03:36:51;;;;;;;38.95;20.08;;;;;;;5.48;97.66;99732.84;5081274;28;20024;-73
2022/09/29 03:39:17;;;;;;;36.15;19.55;;;;;;;5.27;98.96;99737.66;5088169;28;20024;-73
2022/09/29 03:41:42;;;;;;;42.45;21.95;;;;;;;5.45;98.79;99735.84;5076510;28;20030;-73
2022/09/29 03:44:07;;;;;;;40.13;21.67;;;;;;;5.58;98.33;99741.66;5081410;28;20057;-73
2022/09/29 03:46:33;;;;;;;33.85;18.40;;;;;;;5.56;97.93;99743.66;5090793;28;20020;-73
2022/09/29 03:48:58;;;;;;;44.80;22.75;;;;;;;5.53;97.96;99743.94;5089391;28;20020;-73
2022/09/29 03:51:24;;;;;;;44.75;23.40;;;;;;;5.15;100.00;99745.94;5095082;28;20118;-73
2022/09/29 03:53:49;;;;;;;47.05;21.83;;;;;;;5.10;100.00;99742.88;5097795;28;20071;-73
2022/09/29 03:56:15;;;;;;;53.85;26.20;;;;;;;5.07;100.00;99737.78;5077703;28;20020;-73
2022/09/29 03:58:40;;;;;;;63.25;26.75;;;;;;;5.07;100.00;99729.75;5082005;28;20059;-73
2022/09/29 04:01:06;;;;;;;60.95;28.35;;;;;;;5.13;100.00;99736.34;5084026;28;20027;-73
2022/09/29 04:03:32;;;;;;;60.72;27.17;;;;;;;5.13;100.00;99737.19;5099398;28;20054;-72
2022/09/29 04:05:57;;;;;;;72.15;30.15;;;;;;;5.24;100.00;99737.97;5100132;28;20023;-72
2022/09/29 04:08:22;;;;;;;68.40;29.15;;;;;;;5.38;100.00;99740.13;5077006;28;20110;-72
2022/09/29 04:10:48;;;;;;;53.72;26.42;;;;;;;5.28;100.00;99739.34;5092283;28;20024;-73
2022/09/29 04:13:14;;;;;;;48.03;24.05;;;;;;;5.20;100.00;99741.94;5092280;28;20035;-72
2022/09/29 04:15:40;;;;;;;57.10;27.83;;;;;;;5.14;100.00;99744.22;5080363;28;20020;-72
2022/09/29 04:18:05;;;;;;;62.20;28.30;;;;;;;5.38;100.00;99751.69;5077873;28;20028;-73
2022/09/29 04:20:32;;;;;;;86.13;29.95;;;;;;;5.47;100.00;99755.31;5086015;28;20028;-72
2022/09/29 04:22:58;;;;;;;67.68;28.58;;;;;;;5.50;100.00;99757.69;5087035;28;20043;-72
2022/09/29 04:25:23;;;;;;;47.63;24.25;;;;;;;5.58;100.00;99755.09;5087848;28;20028;-73
2022/09/29 04:27:49;;;;;;;44.42;20.23;;;;;;;5.56;100.00;99759.78;5080554;28;20024;-74
2022/09/29 04:30:14;;;;;;;56.63;24.35;;;;;;;5.45;100.00;99763.50;5082980;28;20055;-73
2022/09/29 04:32:40;;;;;;;58.90;26.30;;;;;;;5.38;100.00;99761.59;5080203;28;20028;-72
2022/09/29 04:35:06;;;;;;;48.55;25.35;;;;;;;5.37;100.00;99765.28;5083615;28;20026;-72
2022/09/29 04:37:31;;;;;;;53.45;25.20;;;;;;;5.49;100.00;99769.44;5092601;28;20058;-73
2022/09/29 04:39:57;;;;;;;55.17;27.20;;;;;;;5.51;100.00;99767.44;5077489;28;20048;-72
2022/09/29 04:42:22;;;;;;;57.33;27.77;;;;;;;5.68;100.00;99773.81;5092388;28;20097;-72
2022/09/29 04:44:48;;;;;;;65.60;27.90;;;;;;;5.68;100.00;99766.59;5091016;28;20020;-72
2022/09/29 04:47:14;;;;;;;59.92;25.70;;;;;;;5.60;100.00;99766.50;5075608;28;20032;-73
2022/09/29 04:49:39;;;;;;;60.15;26.45;;;;;;;5.59;100.00;99775.56;5084948;28;20059;-73
2022/09/29 04:52:05;;;;;;;53.80;25.00;;;;;;;5.68;100.00;99769.28;5084576;28;20063;-73
2022/09/29 04:54:34;;;;;;;56.78;24.75;;;;;;;5.58;100.00;99779.25;5088076;28;20024;-73
2022/09/29 04:57:00;;;;;;;54.63;22.83;;;;;;;5.80;100.00;99782.47;5086512;28;20026;-73
2022/09/29 04:59:26;;;;;;;60.22;26.42;;;;;;;5.93;100.00;99780.25;5083428;28;20039;-74
2022/09/29 05:01:52;;;;;;;35.45;17.67;;;;;;;5.73;100.00;99783.06;5091506;28;20110;-73
2022/09/29 05:04:17;;;;;;;47.50;21.83;;;;;;;6.01;100.00;99785.72;5077699;28;20172;-73
2022/09/29 05:06:43;;;;;;;39.13;19.55;;;;;;;5.80;100.00;99787.81;5081030;28;20480;-73
2022/09/29 05:09:08;;;;;;;54.95;23.05;;;;;;;5.84;100.00;99783.84;5100651;28;20023;-74
2022/09/29 05:11:34;;;;;;;47.67;21.90;;;;;;;5.86;100.00;99776.47;5083311;28;20024;-73
2022/09/29 05:14:00;;;;;;;51.78;24.30;;;;;;;5.82;100.00;99775.94;5090071;28;20047;-73
2022/09/29 05:16:25;;;;;;;58.85;24.92;;;;;;;5.48;100.00;99778.50;5087561;28;20020;-74
2022/09/29 05:18:51;;;;;;;43.00;21.50;;;;;;;5.80;100.00;99777.09;5086801;28;20054;-73
2022/09/29 05:21:16;;;;;;;41.25;20.98;;;;;;;5.89;100.00;99777.03;5083238;28;20028;-73
2022/09/29 05:23:42;;;;;;;49.67;20.42;;;;;;;5.97;100.00;99784.31;5074765;28;20027;-73
2022/09/29 05:26:09;;;;;;;43.05;22.45;;;;;;;5.82;100.00;99783.16;5082312;28;20093;-74
2022/09/29 05:28:35;;;;;;;48.85;23.85;;;;;;;5.65;100.00;99791.06;5080669;28;20130;-72
2022/09/29 05:31:02;;;;;;;57.28;25.73;;;;;;;5.50;100.00;99781.84;5088499;28;20023;-72
2022/09/29 05:33:27;;;;;;;62.05;24.98;;;;;;;5.60;100.00;99784.47;5080720;28;20020;-72
2022/09/29 05:35:54;;;;;;;57.28;27.42;;;;;;;5.66;100.00;99792.75;5082965;28;20110;-72
2022/09/29 05:38:19;;;;;;;48.70;25.25;;;;;;;5.64;100.00;99784.00;5081975;28;20075;-72
2022/09/29 05:40:45;;;;;;;49.13;23.77;;;;;;;5.79;100.00;99786.16;5091339;28;20015;-72
2022/09/29 05:43:10;;;;;;;52.50;24.95;;;;;;;5.91;100.00;99791.16;5079631;28;20028;-72
2022/09/29 05:45:36;;;;;;;60.50;26.35;;;;;;;5.80;100.00;99787.81;5080209;28;20460;-72
2022/09/29 05:48:01;;;;;;;59.10;26.13;;;;;;;5.80;100.00;99782.47;5091673;28;20025;-72
2022/09/29 05:50:26;;;;;;;55.90;24.95;;;;;;;5.94;100.00;99798.09;5079581;28;20028;-72
2022/09/29 05:52:53;;;;;;;59.50;26.23;;;;;;;6.09;100.00;99788.47;5086409;28;20020;-72
2022/09/29 05:55:18;;;;;;;59.63;26.27;;;;;;;6.13;100.00;99795.22;5082126;28;20020;-73
2022/09/29 05:57:48;;;;;;;47.25;22.48;;;;;;;6.07;100.00;99798.53;5082766;28;20030;-73
2022/09/29 06:00:14;;;;;;;61.33;27.38;;;;;;;6.19;100.00;99793.72;5089158;28;20020;-73
2022/09/29 06:02:39;;;;;;;60.90;24.55;;;;;;;6.20;100.00;99796.28;5081856;28;20078;-73
2022/09/29 06:05:05;;;;;;;52.90;23.30;;;;;;;6.29;100.00;99788.25;5084406;28;20258;-74
2022/09/29 06:07:30;;;;;;;64.25;26.73;;;;;;;6.34;100.00;99796.72;5087565;28;20030;-73
2022/09/29 06:09:55;;;;;;;50.90;23.98;;;;;;;6.49;100.00;99800.50;5090863;28;20471;-74
2022/09/29 06:12:21;;;;;;;60.45;26.90;;;;;;;6.57;100.00;99792.47;5094231;28;20109;-73
2022/09/29 06:14:46;;;;;;;52.03;24.92;;;;;;;6.58;100.00;99796.84;5082289;28;20024;-73
2022/09/29 06:17:11;;;;;;;46.88;23.95;;;;;;;6.75;100.00;99795.94;5086122;28;20052;-73
2022/09/29 06:19:37;;;;;;;57.53;26.02;;;;;;;6.70;100.00;99792.88;5076978;28;20024;-73
2022/09/29 06:22:02;;;;;;;59.42;25.75;;;;;;;6.82;100.00;99798.00;5075368;28;20091;-73
2022/09/29 06:24:28;;;;;;;58.60;26.88;;;;;;;6.78;100.00;99800.16;5071500;28;20078;-74
2022/09/29 06:26:59;;;;;;;63.47;26.33;;;;;;;6.85;100.00;99800.38;5077407;28;20081;-70
2022/09/29 06:29:28;;;;;;;57.85;28.33;;;;;;;6.90;100.00;99798.03;5078429;28;20023;-70
2022/09/29 06:31:54;;;;;;;67.40;28.30;;;;;;;7.09;100.00;99805.84;5074537;28;20024;-71
2022/09/29 06:34:20;;;;;;;61.75;27.10;;;;;;;7.13;100.00;99809.91;5074672;28;20059;-69
2022/09/29 06:39:29;;;;;;;62.28;29.88;;;;;;;7.18;100.00;99810.28;5082540;28;20028;-69
2022/09/29 06:41:55;;;;;;;62.50;28.10;;;;;;;7.14;100.00;99816.13;5069774;28;20039;-69
2022/09/29 06:44:25;;;;;;;67.18;30.02;;;;;;;7.10;100.00;99810.22;5068956;28;20028;-70
2022/09/29 06:46:51;;;;;;;55.85;27.83;;;;;;;7.26;100.00;99815.69;5083314;28;20030;-72
2022/09/29 06:49:17;;;;;;;60.13;27.98;;;;;;;7.28;100.00;99816.34;5077357;28;20016;-72
2022/09/29 06:51:43;;;;;;;58.22;27.05;;;;;;;7.62;100.00;99815.44;5076523;28;20074;-73
2022/09/29 06:54:13;;;;;;;80.05;27.65;;;;;;;7.57;100.00;99809.72;5066202;28;20125;-70
2022/09/29 06:56:39;;;;;;;54.30;26.75;;;;;;;7.84;100.00;99814.81;5060212;28;20042;-74
2022/09/29 06:59:05;;;;;;;60.75;26.02;;;;;;;8.02;100.00;99811.09;5062689;28;20028;-70
2022/09/29 07:01:30;;;;;;;59.72;26.83;;;;;;;8.09;100.00;99812.16;5073242;28;20119;-69
2022/09/29 07:03:56;;;;;;;61.42;27.58;;;;;;;7.93;100.00;99817.50;5075524;28;20027;-77
2022/09/29 07:06:21;;;;;;;64.70;25.65;;;;;;;8.17;100.00;99814.84;5075181;28;20035;-70
2022/09/29 07:08:47;;;;;;;68.70;28.70;;;;;;;8.15;100.00;99811.47;5069594;28;20019;-71
2022/09/29 07:11:12;;;;;;;62.05;27.55;;;;;;;8.34;100.00;99811.09;5075762;28;20024;-74
2022/09/29 07:13:38;;;;;;;56.53;27.52;;;;;;;8.47;100.00;99809.78;5070072;28;20020;-70
2022/09/29 07:16:12;;;;;;;54.58;25.98;;;;;;;8.45;100.00;99819.91;5073980;28;20063;-74
2022/09/29 07:18:40;;;;;;;58.70;28.20;;;;;;;8.53;100.00;99819.88;5070951;28;20020;-75
2022/09/29 07:21:08;;;;;;;54.97;29.48;;;;;;;8.59;100.00;99830.00;5073141;28;20028;-70
2022/09/29 07:23:35;;;;;;;63.15;28.27;;;;;;;8.31;100.00;99824.94;5082996;28;20083;-68
2022/09/29 07:26:01;;;;;;;62.33;30.13;;;;;;;8.51;100.00;99821.91;5096624;28;20026;-76
2022/09/29 07:28:28;;;;;;;73.05;29.65;;;;;;;8.57;100.00;99826.63;5091512;28;20028;-69
2022/09/29 07:31:06;;;;;;;65.22;29.63;;;;;;;8.86;100.00;99829.59;5087208;28;20036;-69
2022/09/29 07:33:32;;;;;;;56.53;27.75;;;;;;;9.04;100.00;99828.53;5068227;28;20043;-69
2022/09/29 07:36:00;;;;;;;59.33;30.90;;;;;;;8.98;100.00;99830.91;5087860;28;20024;-74
2022/09/29 07:38:26;;;;;;;60.60;31.33;;;;;;;9.19;100.00;99833.06;5078616;28;20446;-69
2022/09/29 07:40:52;;;;;;;61.75;29.55;;;;;;;9.23;100.00;99836.22;5079712;28;20073;-71
2022/09/29 07:43:18;;;;;;;54.38;28.67;;;;;;;9.44;100.00;99839.16;5090371;28;20020;-69
2022/09/29 07:45:48;;;;;;;55.55;30.00;;;;;;;9.52;99.16;99844.53;5082591;28;20077;-74
2022/09/29 07:48:14;;;;;;;60.03;29.73;;;;;;;9.40;99.61;99845.97;5077493;28;20051;-72
2022/09/29 07:50:39;;;;;;;56.50;29.17;;;;;;;9.37;100.00;99840.88;5077529;28;20055;-72
2022/09/29 07:53:05;;;;;;;56.70;28.33;;;;;;;9.48;100.00;99842.38;5080738;28;20051;-72
2022/09/29 07:55:30;;;;;;;49.60;27.27;;;;;;;9.50;99.80;99843.84;5078108;28;20024;-75
2022/09/29 07:57:55;;;;;;;46.03;26.73;;;;;;;9.73;98.95;99840.38;5074290;28;20024;-69
2022/09/29 08:00:21;;;;;;;49.90;26.00;;;;;;;9.57;99.34;99840.44;5076538;28;20476;-72
2022/09/29 08:02:46;;;;;;;54.38;27.75;;;;;;;9.68;99.83;99842.75;5083164;28;20020;-75
2022/09/29 08:06:11;;;;;;;53.10;28.70;;;;;;;9.87;99.60;99842.31;5068542;28;20115;-71
2022/09/29 08:08:37;;;;;;;56.60;26.73;;;;;;;9.98;97.95;99844.59;5021688;28;20544;-75
2022/09/29 08:11:05;;;;;;;46.55;26.50;;;;;;;10.19;98.05;99845.81;5074884;28;20020;-69
2022/09/29 08:13:32;;;;;;;46.03;24.67;;;;;;;10.09;97.13;99851.44;5079493;28;20037;-69
2022/09/29 08:16:03;;;;;;;41.72;24.30;;;;;;;10.28;97.42;99851.00;5078537;28;20027;-76
2022/09/29 08:18:30;;;;;;;48.58;23.23;;;;;;;10.44;95.71;99855.44;5078097;28;20019;-71
2022/09/29 08:20:56;;;;;;;38.63;23.17;;;;;;;10.25;95.10;99858.66;5077369;28;20012;-69
2022/09/29 08:23:22;;;;;;;43.78;22.75;;;;;;;10.02;95.62;99867.53;5071339;28;20096;-75
2022/09/29 08:25:48;;;;;;;40.90;22.33;;;;;;;10.00;96.44;99858.78;5072662;28;20012;-75
2022/09/29 08:28:13;;;;;;;37.70;22.13;;;;;;;10.03;95.67;99869.22;5073517;28;20353;-70
2022/09/29 08:30:39;;;;;;;37.90;21.77;;;;;;;10.13;95.24;99862.75;5075551;28;20033;-71
2022/09/29 08:33:11;;;;;;;38.17;20.27;;;;;;;10.58;94.35;99870.88;5067762;28;20142;-69
2022/09/29 08:35:36;;;;;;;;;;;;;;;10.33;94.07;99874.81;5067157;28;20034;-69
2022/09/29 08:38:02;;;;;;;34.50;19.75;;;;;;;10.38;93.43;99872.41;5083083;28;19911;-73
2022/09/29 08:40:29;;;;;;;35.97;22.42;;;;;;;10.29;94.60;99868.91;5091245;28;20023;-71
2022/09/29 08:43:29;;;;;;;37.97;19.52;;;;;;;10.37;94.84;99870.72;5078639;28;20097;-70
2022/09/29 08:46:12;;;;;;;30.98;18.75;;;;;;;10.45;93.54;99884.19;5073142;28;20040;-71
2022/09/29 08:48:43;;;;;;;29.02;18.45;;;;;;;10.48;93.16;99883.81;5088274;28;20035;-75
2022/09/29 08:51:26;;;;;;;26.52;17.67;;;;;;;10.53;92.81;99881.41;5083758;28;20019;-71
2022/09/29 08:53:55;;;;;;;31.75;17.00;;;;;;;10.72;92.43;99880.06;5082699;28;20046;-75
2022/09/29 08:56:21;;;;;;;34.50;19.80;;;;;;;11.07;91.17;99888.50;5075017;28;20145;-69
2022/09/29 08:58:46;;;;;;;26.15;16.65;;;;;;;11.04;91.16;99894.28;5078347;28;20091;-70
2022/09/29 09:01:23;;;;;;;25.77;15.98;;;;;;;11.07;90.95;99886.63;5073339;28;20020;-76
2022/09/29 09:04:14;;;;;;;25.65;16.83;;;;;;;11.27;90.59;99883.38;5078953;28;20047;-70
2022/09/29 09:06:47;;;;;;;25.92;15.77;;;;;;;11.45;89.55;99891.13;5075479;28;20019;-70
2022/09/29 09:09:35;;;;;;;34.78;16.67;;;;;;;11.66;88.62;99883.88;5077102;28;20031;-71
2022/09/29 09:12:16;;;;;;;26.38;16.48;;;;;;;11.61;87.44;99890.94;5077779;28;20028;-71
2022/09/29 09:14:47;;;;;;;28.20;16.45;;;;;;;11.82;88.55;99895.59;5080505;28;20081;-72
2022/09/29 09:17:42;;;;;;;26.83;15.57;;;;;;;12.22;86.21;99888.75;5075053;28;20024;-72
2022/09/29 09:20:13;;;;;;;23.98;14.15;;;;;;;12.56;85.12;99904.31;5062730;28;20050;-71
2022/09/29 09:22:58;;;;;;;25.45;14.35;;;;;;;12.38;85.10;99898.50;5073998;28;20031;-69
2022/09/29 09:25:34;;;;;;;24.17;14.65;;;;;;;12.17;84.68;99891.19;5068974;28;20425;-70
2022/09/29 09:28:12;;;;;;;31.35;15.95;;;;;;;12.18;84.48;99899.13;5080634;28;20024;-69
2022/09/29 09:30:50;;;;;;;24.17;16.17;;;;;;;12.56;83.91;99898.88;5061948;28;20016;-72
2022/09/29 09:33:24;;;;;;;28.35;14.20;;;;;;;12.53;83.14;99902.00;5072809;28;20016;-71
2022/09/29 09:36:00;;;;;;;32.03;15.95;;;;;;;12.08;84.91;99909.47;5071601;28;20024;-68
2022/09/29 09:38:39;;;;;;;23.90;15.23;;;;;;;12.44;82.79;99908.56;5076500;28;20016;-70
2022/09/29 09:41:05;;;;;;;27.23;15.98;;;;;;;12.65;83.27;99908.59;5067751;28;20024;-71
2022/09/29 09:43:39;;;;;;;32.85;15.52;;;;;;;12.57;83.30;99908.69;5068626;28;20027;-72
2022/09/29 09:46:34;;;;;;;26.88;14.95;;;;;;;12.75;82.88;99905.53;5080655;28;20077;-71
2022/09/29 09:49:18;;;;;;;25.77;15.05;;;;;;;12.75;81.71;99906.38;5073879;28;20027;-71
2022/09/29 09:51:59;;;;;;;25.92;16.17;;;;;;;12.40;82.09;99901.88;5098216;28;20061;-70
2022/09/29 09:54:41;;;;;;;25.55;15.77;;;;;;;12.32;82.35;99904.69;5077304;28;20028;-71
2022/09/29 09:57:16;;;;;;;;;;;;;;;12.56;82.06;99904.31;5082448;28;20020;-72
2022/09/29 10:00:04;;;;;;;23.88;15.00;;;;;;;12.48;80.20;99915.31;5072434;28;19950;-68
2022/09/29 10:02:30;;;;;;;22.52;14.38;;;;;;;12.38;82.26;99915.63;5067184;28;20031;-68
2022/09/29 10:04:56;;;;;;;29.52;16.77;;;;;;;12.29;81.47;99915.94;5067172;28;20099;-68
2022/09/29 10:07:24;;;;;;;23.70;14.68;;;;;;;12.14;82.29;99919.56;5059920;28;20111;-71
2022/09/29 10:09:50;;;;;;;22.02;15.13;;;;;;;12.46;81.64;99923.66;5078261;28;20012;-72
2022/09/29 10:12:18;;;;;;;23.63;16.10;;;;;;;12.11;82.75;99919.94;5073449;28;20092;-69
2022/09/29 10:14:51;;;;;;;27.40;16.98;;;;;;;11.93;83.71;99922.22;5083076;28;20019;-72
2022/09/29 10:17:20;;;;;;;27.58;16.38;;;;;;;12.17;83.59;99919.16;5087030;28;20068;-72
2022/09/29 10:19:54;;;;;;;25.33;15.50;;;;;;;12.29;83.48;99921.38;5076970;28;20016;-71
2022/09/29 10:22:19;;;;;;;23.58;15.65;;;;;;;12.26;83.03;99921.75;5073872;28;20016;-69
2022/09/29 10:24:45;;;;;;;22.45;14.85;;;;;;;12.29;82.96;99926.81;5072083;28;20027;-71
2022/09/29 10:27:17;;;;;;;23.88;15.38;;;;;;;12.45;82.64;99915.69;5075553;28;20107;-68
2022/09/29 10:29:49;;;;;;;22.80;14.60;;;;;;;12.33;83.21;99923.53;5070289;28;20024;-69
2022/09/29 10:32:35;;;;;;;19.80;14.90;;;;;;;12.46;83.50;99922.81;5077315;28;20107;-72
2022/09/29 10:35:14;;;;;;;21.25;13.95;;;;;;;12.28;83.45;99934.09;5080633;28;20038;-69
2022/09/29 10:37:45;;;;;;;25.52;13.50;;;;;;;12.60;82.61;99935.47;5073457;28;20020;-71
2022/09/29 10:40:10;;;;;;;24.92;14.05;;;;;;;12.39;83.47;99932.78;5068672;28;20106;-68
2022/09/29 10:42:38;;;;;;;21.40;11.50;;;;;;;12.40;83.29;99929.03;5068166;28;20036;-70
2022/09/29 10:45:06;;;;;;;20.52;12.32;;;;;;;12.34;82.64;99936.06;5088784;28;20115;-72
2022/09/29 10:47:33;;;;;;;16.73;11.02;;;;;;;12.72;81.50;99939.34;5084654;28;20036;-73
2022/09/29 10:50:14;;;;;;;18.88;11.75;;;;;;;12.86;81.21;99944.91;5069498;28;20107;-70
2022/09/29 10:52:49;;;;;;;16.17;10.77;;;;;;;12.28;81.94;99946.84;5076511;28;20027;-69
2022/09/29 10:55:29;;;;;;;16.23;11.35;;;;;;;12.02;83.67;99940.06;5089370;28;20404;-69
2022/09/29 10:57:58;;;;;;;18.33;12.55;;;;;;;11.85;84.73;99952.16;5068984;28;20008;-72
2022/09/29 11:00:31;;;;;;;17.25;12.23;;;;;;;12.10;84.37;99953.53;5072727;28;20077;-70
2022/09/29 11:03:22;;;;;;;18.17;12.43;;;;;;;12.46;83.44;99947.25;5076500;28;20035;-72
2022/09/29 11:05:50;;;;;;;20.27;13.73;;;;;;;12.12;84.63;99953.31;5069304;28;20024;-69
2022/09/29 11:08:16;;;;;;;19.45;12.43;;;;;;;12.11;83.97;99960.63;5075186;28;20027;-71
2022/09/29 11:10:42;;;;;;;18.13;12.05;;;;;;;11.97;85.28;99961.50;5072505;28;20040;-72
2022/09/29 11:13:23;;;;;;;19.75;12.90;;;;;;;11.91;84.77;99973.09;5070874;28;20164;-72
2022/09/29 11:15:48;;;;;;;21.25;11.68;;;;;;;11.80;85.42;99959.97;5080008;28;20024;-71
2022/09/29 11:18:24;;;;;;;15.02;10.63;;;;;;;11.87;84.88;99960.97;5070251;28;20088;-73
2022/09/29 11:21:03;;;;;;;16.23;10.77;;;;;;;12.03;85.33;99966.16;5070113;28;20054;-71
2022/09/29 11:23:45;;;;;;;17.92;10.27;;;;;;;11.97;84.78;99972.34;5075462;28;20050;-70
2022/09/29 11:26:16;;;;;;;;;;;;;;;11.92;85.53;99958.50;5067560;28;20077;-71
2022/09/29 11:28:55;;;;;;;20.25;10.57;;;;;;;11.85;85.22;99979.28;5073543;28;20019;-68
2022/09/29 11:31:39;;;;;;;16.05;10.40;;;;;;;11.88;85.10;99978.91;5057048;28;20028;-71
2022/09/29 11:34:14;;;;;;;22.95;12.65;;;;;;;11.61;86.88;99977.69;5069626;28;20020;-70
2022/09/29 11:36:59;;;;;;;17.80;10.18;;;;;;;12.14;85.47;99979.25;5065905;28;20032;-70
2022/09/29 11:39:47;;;;;;;17.40;11.43;;;;;;;11.88;85.61;99989.78;5067664;28;20028;-72